sensor_id;sensor_type;location;lat;lon;timestamp;pressure;altitude;pressure_sealevel;temperature;humidity
41202;BME280;26936;50.524;8.684;2022-07-29T00:00:54;99275.06;;;18.69;54.48
41202;BME280;26936;50.524;8.684;2022-07-29T00:03:19;99275.06;;;18.69;55.15
41202;BME280;26936;50.524;8.684;2022-07-29T00:05:45;99272.22;;;18.69;54.56
41202;BME280;26936;50.524;8.684;2022-07-29T00:08:10;99272.22;;;18.69;54.11
41202;BME280;26936;50.524;8.684;2022-07-29T00:10:35;99270.41;;;18.72;54.08
41202;BME280;26936;50.524;8.684;2022-07-29T00:13:01;99271.94;;;18.73;53.98
41202;BME280;26936;50.524;8.684;2022-07-29T00:15:26;99269.09;;;18.73;53.33
41202;BME280;26936;50.524;8.684;2022-07-29T00:17:52;99268.63;;;18.74;53.83
41202;BME280;26936;50.524;8.684;2022-07-29T00:20:17;99263.16;;;18.76;54.06
41202;BME280;26936;50.524;8.684;2022-07-29T00:22:43;99255.38;;;18.77;53.64
41202;BME280;26936;50.524;8.684;2022-07-29T00:25:08;99253.84;;;18.76;53.52
41202;BME280;26936;50.524;8.684;2022-07-29T00:27:35;99270.16;;;18.75;52.89
41202;BME280;26936;50.524;8.684;2022-07-29T00:30:00;99262.91;;;18.74;52.54
41202;BME280;26936;50.524;8.684;2022-07-29T00:32:25;99267.28;;;18.70;53.45
41202;BME280;26936;50.524;8.684;2022-07-29T00:34:51;99271.16;;;18.67;53.57
41202;BME280;26936;50.524;8.684;2022-07-29T00:37:34;99282.78;;;18.63;53.52
41202;BME280;26936;50.524;8.684;2022-07-29T00:40:00;99291.09;;;18.61;53.51
41202;BME280;26936;50.524;8.684;2022-07-29T00:42:25;99293.16;;;18.61;52.82
41202;BME280;26936;50.524;8.684;2022-07-29T00:44:50;99300.13;;;18.54;53.24
41202;BME280;26936;50.524;8.684;2022-07-29T00:47:16;99295.41;;;18.46;53.81
41202;BME280;26936;50.524;8.684;2022-07-29T00:49:41;99297.50;;;18.51;53.99
41202;BME280;26936;50.524;8.684;2022-07-29T00:52:08;99292.81;;;18.48;54.85
41202;BME280;26936;50.524;8.684;2022-07-29T00:54:34;99296.41;;;18.43;55.27
41202;BME280;26936;50.524;8.684;2022-07-29T00:57:00;99311.75;;;18.51;54.50
41202;BME280;26936;50.524;8.684;2022-07-29T00:59:26;99316.44;;;18.54;54.31
41202;BME280;26936;50.524;8.684;2022-07-29T01:01:52;99322.66;;;18.52;54.43
41202;BME280;26936;50.524;8.684;2022-07-29T01:04:17;99327.06;;;18.53;53.94
41202;BME280;26936;50.524;8.684;2022-07-29T01:06:43;99325.56;;;18.58;53.78
41202;BME280;26936;50.524;8.684;2022-07-29T01:09:09;99330.25;;;18.61;53.81
41202;BME280;26936;50.524;8.684;2022-07-29T01:11:36;99334.94;;;18.64;54.06
41202;BME280;26936;50.524;8.684;2022-07-29T01:14:02;99323.56;;;18.69;53.38
41202;BME280;26936;50.524;8.684;2022-07-29T01:16:31;99324.88;;;18.74;53.55
41202;BME280;26936;50.524;8.684;2022-07-29T01:19:07;99316.31;;;18.74;55.19
41202;BME280;26936;50.524;8.684;2022-07-29T01:24:26;99324.59;;;18.72;54.37
41202;BME280;26936;50.524;8.684;2022-07-29T01:27:44;99318.63;;;18.70;55.71
41202;BME280;26936;50.524;8.684;2022-07-29T01:29:58;99321.69;;;18.66;55.13
41202;BME280;26936;50.524;8.684;2022-07-29T01:32:26;99320.16;;;18.65;56.94
41202;BME280;26936;50.524;8.684;2022-07-29T01:37:39;99317.41;;;18.45;64.83
41202;BME280;26936;50.524;8.684;2022-07-29T01:40:14;99303.03;;;18.29;69.03
41202;BME280;26936;50.524;8.684;2022-07-29T01:42:45;99299.84;;;18.21;70.67
41202;BME280;26936;50.524;8.684;2022-07-29T01:45:45;99300.56;;;18.11;73.83
41202;BME280;26936;50.524;8.684;2022-07-29T01:48:12;99296.06;;;17.99;76.86
41202;BME280;26936;50.524;8.684;2022-07-29T01:51:14;99291.78;;;17.83;77.13
41202;BME280;26936;50.524;8.684;2022-07-29T01:54:29;99291.88;;;17.69;77.96
41202;BME280;26936;50.524;8.684;2022-07-29T01:56:34;99281.78;;;17.68;77.18
41202;BME280;26936;50.524;8.684;2022-07-29T01:59:02;99279.63;;;17.57;76.84
41202;BME280;26936;50.524;8.684;2022-07-29T02:01:31;99282.34;;;17.46;75.38
41202;BME280;26936;50.524;8.684;2022-07-29T02:03:58;99275.28;;;17.41;75.67
41202;BME280;26936;50.524;8.684;2022-07-29T02:06:25;99272.13;;;17.34;79.82
41202;BME280;26936;50.524;8.684;2022-07-29T02:08:52;99261.34;;;17.18;83.17
41202;BME280;26936;50.524;8.684;2022-07-29T02:11:18;99260.69;;;17.08;83.23
41202;BME280;26936;50.524;8.684;2022-07-29T02:13:44;99247.97;;;17.04;77.92
41202;BME280;26936;50.524;8.684;2022-07-29T02:16:11;99243.28;;;17.01;76.72
41202;BME280;26936;50.524;8.684;2022-07-29T02:18:39;99241.38;;;16.92;75.74
41202;BME280;26936;50.524;8.684;2022-07-29T02:21:06;99243.16;;;16.90;79.51
41202;BME280;26936;50.524;8.684;2022-07-29T02:23:33;99228.66;;;16.88;76.13
41202;BME280;26936;50.524;8.684;2022-07-29T02:26:01;99233.72;;;16.78;80.34
41202;BME280;26936;50.524;8.684;2022-07-29T02:28:28;99225.88;;;16.73;81.46
41202;BME280;26936;50.524;8.684;2022-07-29T02:30:58;99215.81;;;16.72;81.71
41202;BME280;26936;50.524;8.684;2022-07-29T02:33:25;99208.25;;;16.69;83.61
41202;BME280;26936;50.524;8.684;2022-07-29T02:35:51;99193.78;;;16.67;84.41
41202;BME280;26936;50.524;8.684;2022-07-29T02:38:17;99184.16;;;16.65;84.53
41202;BME280;26936;50.524;8.684;2022-07-29T02:41:05;99169.66;;;16.63;85.89
41202;BME280;26936;50.524;8.684;2022-07-29T02:43:33;99153.19;;;16.47;86.91
41202;BME280;26936;50.524;8.684;2022-07-29T02:46:00;99156.09;;;16.52;86.21
41202;BME280;26936;50.524;8.684;2022-07-29T02:48:41;99162.00;;;16.49;84.86
41202;BME280;26936;50.524;8.684;2022-07-29T02:51:09;99174.16;;;16.49;81.48
41202;BME280;26936;50.524;8.684;2022-07-29T02:53:38;99181.69;;;16.52;81.08
41202;BME280;26936;50.524;8.684;2022-07-29T02:56:14;99179.25;;;16.45;84.57
41202;BME280;26936;50.524;8.684;2022-07-29T02:58:45;99167.22;;;16.36;81.72
41202;BME280;26936;50.524;8.684;2022-07-29T03:01:16;99173.19;;;16.38;83.12
41202;BME280;26936;50.524;8.684;2022-07-29T03:03:43;99169.78;;;16.33;81.89
41202;BME280;26936;50.524;8.684;2022-07-29T03:06:12;99161.25;;;16.33;76.87
41202;BME280;26936;50.524;8.684;2022-07-29T03:08:39;99163.81;;;16.31;75.83
41202;BME280;26936;50.524;8.684;2022-07-29T03:11:05;99162.88;;;16.40;79.94
41202;BME280;26936;50.524;8.684;2022-07-29T03:13:30;99171.03;;;16.47;85.18
41202;BME280;26936;50.524;8.684;2022-07-29T03:15:58;99170.03;;;16.50;85.45
41202;BME280;26936;50.524;8.684;2022-07-29T03:18:24;99169.72;;;16.48;85.41
41202;BME280;26936;50.524;8.684;2022-07-29T03:20:49;99168.72;;;16.51;85.28
41202;BME280;26936;50.524;8.684;2022-07-29T03:23:19;99177.84;;;16.55;85.39
41202;BME280;26936;50.524;8.684;2022-07-29T03:25:45;99176.22;;;16.49;83.46
41202;BME280;26936;50.524;8.684;2022-07-29T03:28:10;99185.41;;;16.44;85.88
41202;BME280;26936;50.524;8.684;2022-07-29T03:30:35;99190.03;;;16.41;86.52
41202;BME280;26936;50.524;8.684;2022-07-29T03:33:01;99189.97;;;16.36;88.45
41202;BME280;26936;50.524;8.684;2022-07-29T03:35:26;99197.50;;;16.39;86.18
41202;BME280;26936;50.524;8.684;2022-07-29T03:37:51;99200.84;;;16.37;85.51
41202;BME280;26936;50.524;8.684;2022-07-29T03:40:23;99191.91;;;16.44;81.50
41202;BME280;26936;50.524;8.684;2022-07-29T03:42:50;99192.00;;;16.35;85.10
41202;BME280;26936;50.524;8.684;2022-07-29T03:45:18;99191.50;;;16.37;87.25
41202;BME280;26936;50.524;8.684;2022-07-29T03:47:50;99190.47;;;16.34;85.98
41202;BME280;26936;50.524;8.684;2022-07-29T03:50:18;99182.72;;;16.35;82.56
41202;BME280;26936;50.524;8.684;2022-07-29T03:52:45;99196.34;;;16.30;86.37
41202;BME280;26936;50.524;8.684;2022-07-29T03:55:11;99211.66;;;16.33;86.66
41202;BME280;26936;50.524;8.684;2022-07-29T03:57:37;99237.69;;;16.31;90.04
41202;BME280;26936;50.524;8.684;2022-07-29T04:00:04;99237.22;;;16.33;90.75
41202;BME280;26936;50.524;8.684;2022-07-29T04:02:32;99234.16;;;16.37;90.12
41202;BME280;26936;50.524;8.684;2022-07-29T04:04:57;99231.09;;;16.40;87.11
41202;BME280;26936;50.524;8.684;2022-07-29T04:07:23;99230.81;;;16.38;88.40
41202;BME280;26936;50.524;8.684;2022-07-29T04:09:48;99234.09;;;16.31;94.51
41202;BME280;26936;50.524;8.684;2022-07-29T04:12:13;99226.81;;;16.30;95.49
41202;BME280;26936;50.524;8.684;2022-07-29T04:14:38;99217.66;;;16.20;99.44
41202;BME280;26936;50.524;8.684;2022-07-29T04:17:04;99221.84;;;16.25;98.96
41202;BME280;26936;50.524;8.684;2022-07-29T04:19:30;99220.28;;;16.24;98.01
41202;BME280;26936;50.524;8.684;2022-07-29T04:21:58;99221.09;;;16.24;96.77
41202;BME280;26936;50.524;8.684;2022-07-29T04:24:24;99223.78;;;16.13;98.58
41202;BME280;26936;50.524;8.684;2022-07-29T04:26:50;99224.53;;;16.14;100.00
41202;BME280;26936;50.524;8.684;2022-07-29T04:29:15;99229.72;;;16.15;99.57
41202;BME280;26936;50.524;8.684;2022-07-29T04:31:41;99226.88;;;16.15;100.00
41202;BME280;26936;50.524;8.684;2022-07-29T04:34:06;99210.03;;;16.12;100.00
41202;BME280;26936;50.524;8.684;2022-07-29T04:36:32;99192.03;;;16.15;95.94
41202;BME280;26936;50.524;8.684;2022-07-29T04:38:57;99167.91;;;16.10;94.00
41202;BME280;26936;50.524;8.684;2022-07-29T04:41:23;99149.94;;;15.99;94.43
41202;BME280;26936;50.524;8.684;2022-07-29T04:43:48;99135.88;;;15.90;95.84
41202;BME280;26936;50.524;8.684;2022-07-29T04:46:13;99141.59;;;15.75;94.83
41202;BME280;26936;50.524;8.684;2022-07-29T04:48:38;99154.91;;;15.84;96.32
41202;BME280;26936;50.524;8.684;2022-07-29T04:51:04;99187.19;;;15.86;100.00
41202;BME280;26936;50.524;8.684;2022-07-29T04:53:29;99209.88;;;16.01;100.00
41202;BME280;26936;50.524;8.684;2022-07-29T04:55:54;99193.47;;;15.90;100.00
41202;BME280;26936;50.524;8.684;2022-07-29T04:58:20;99192.47;;;15.93;100.00
41202;BME280;26936;50.524;8.684;2022-07-29T05:00:45;99204.81;;;15.90;100.00
41202;BME280;26936;50.524;8.684;2022-07-29T05:03:10;99213.84;;;15.89;100.00
41202;BME280;26936;50.524;8.684;2022-07-29T05:05:35;99227.06;;;15.92;100.00
41202;BME280;26936;50.524;8.684;2022-07-29T05:08:01;99227.63;;;15.96;100.00
41202;BME280;26936;50.524;8.684;2022-07-29T05:10:26;99223.78;;;15.99;100.00
41202;BME280;26936;50.524;8.684;2022-07-29T05:12:51;99213.16;;;15.94;100.00
41202;BME280;26936;50.524;8.684;2022-07-29T05:15:17;99220.38;;;15.95;100.00
41202;BME280;26936;50.524;8.684;2022-07-29T05:17:43;99213.84;;;15.89;100.00
41202;BME280;26936;50.524;8.684;2022-07-29T05:20:09;99221.88;;;15.90;100.00
41202;BME280;26936;50.524;8.684;2022-07-29T05:22:34;99225.75;;;15.93;100.00
41202;BME280;26936;50.524;8.684;2022-07-29T05:25:00;99213.91;;;15.94;100.00
41202;BME280;26936;50.524;8.684;2022-07-29T05:27:25;99218.59;;;15.97;100.00
41202;BME280;26936;50.524;8.684;2022-07-29T05:29:50;99221.94;;;15.96;100.00
41202;BME280;26936;50.524;8.684;2022-07-29T05:32:16;99214.91;;;15.91;100.00
41202;BME280;26936;50.524;8.684;2022-07-29T05:34:41;99215.25;;;15.99;100.00
41202;BME280;26936;50.524;8.684;2022-07-29T05:37:07;99225.84;;;15.98;100.00
41202;BME280;26936;50.524;8.684;2022-07-29T05:39:32;99234.56;;;15.95;100.00
41202;BME280;26936;50.524;8.684;2022-07-29T05:41:57;99236.13;;;15.96;100.00
41202;BME280;26936;50.524;8.684;2022-07-29T05:44:23;99239.47;;;15.94;100.00
41202;BME280;26936;50.524;8.684;2022-07-29T05:46:48;99237.28;;;16.04;100.00
41202;BME280;26936;50.524;8.684;2022-07-29T05:49:13;99239.31;;;16.18;99.03
41202;BME280;26936;50.524;8.684;2022-07-29T05:51:39;99251.59;;;16.09;100.00
41202;BME280;26936;50.524;8.684;2022-07-29T05:54:05;99250.72;;;16.38;99.64
41202;BME280;26936;50.524;8.684;2022-07-29T05:56:30;99240.50;;;17.06;98.13
41202;BME280;26936;50.524;8.684;2022-07-29T05:58:55;99243.75;;;17.71;91.83
41202;BME280;26936;50.524;8.684;2022-07-29T06:01:21;99246.44;;;18.53;88.19
41202;BME280;26936;50.524;8.684;2022-07-29T06:03:46;99246.44;;;19.17;83.45
41202;BME280;26936;50.524;8.684;2022-07-29T06:06:11;99251.19;;;19.31;80.90
41202;BME280;26936;50.524;8.684;2022-07-29T06:08:37;99252.16;;;19.17;81.23
41202;BME280;26936;50.524;8.684;2022-07-29T06:11:04;99247.75;;;19.27;81.34
41202;BME280;26936;50.524;8.684;2022-07-29T06:13:29;99244.25;;;19.98;79.20
41202;BME280;26936;50.524;8.684;2022-07-29T06:15:54;99246.97;;;20.76;75.10
41202;BME280;26936;50.524;8.684;2022-07-29T06:18:20;99237.28;;;21.47;72.26
41202;BME280;26936;50.524;8.684;2022-07-29T06:20:48;99249.03;;;22.14;66.19
41202;BME280;26936;50.524;8.684;2022-07-29T06:23:13;99243.19;;;21.95;65.89
41202;BME280;26936;50.524;8.684;2022-07-29T06:25:40;99232.88;;;21.81;66.18
41202;BME280;26936;50.524;8.684;2022-07-29T06:28:05;99239.63;;;22.13;64.82
41202;BME280;26936;50.524;8.684;2022-07-29T06:30:31;99235.31;;;22.79;63.40
41202;BME280;26936;50.524;8.684;2022-07-29T06:32:56;99239.94;;;23.25;61.50
41202;BME280;26936;50.524;8.684;2022-07-29T06:35:21;99232.75;;;23.55;61.46
41202;BME280;26936;50.524;8.684;2022-07-29T06:37:47;99230.72;;;24.00;59.50
41202;BME280;26936;50.524;8.684;2022-07-29T06:40:12;99234.31;;;24.33;56.46
41202;BME280;26936;50.524;8.684;2022-07-29T06:42:56;99231.94;;;24.63;57.55
41202;BME280;26936;50.524;8.684;2022-07-29T06:45:21;99230.69;;;25.23;56.04
41202;BME280;26936;50.524;8.684;2022-07-29T06:47:47;99231.91;;;25.41;55.55
41202;BME280;26936;50.524;8.684;2022-07-29T06:50:13;99233.41;;;25.89;54.44
41202;BME280;26936;50.524;8.684;2022-07-29T06:52:39;99240.47;;;25.88;53.89
41202;BME280;26936;50.524;8.684;2022-07-29T06:55:04;99240.59;;;26.16;53.42
41202;BME280;26936;50.524;8.684;2022-07-29T06:57:30;99240.47;;;26.21;53.29
41202;BME280;26936;50.524;8.684;2022-07-29T06:59:58;99241.66;;;26.26;51.33
41202;BME280;26936;50.524;8.684;2022-07-29T07:02:23;99243.19;;;26.47;51.40
41202;BME280;26936;50.524;8.684;2022-07-29T07:04:49;99240.91;;;26.53;50.81
41202;BME280;26936;50.524;8.684;2022-07-29T07:07:14;99247.50;;;26.61;49.90
41202;BME280;26936;50.524;8.684;2022-07-29T07:09:58;99247.50;;;27.18;49.22
41202;BME280;26936;50.524;8.684;2022-07-29T07:12:23;99247.03;;;26.50;49.17
41202;BME280;26936;50.524;8.684;2022-07-29T07:15:04;99257.28;;;27.07;49.64
41202;BME280;26936;50.524;8.684;2022-07-29T07:17:29;99250.97;;;27.16;48.65
41202;BME280;26936;50.524;8.684;2022-07-29T07:19:54;99255.53;;;27.40;48.57
41202;BME280;26936;50.524;8.684;2022-07-29T07:22:20;99251.63;;;27.30;47.76
41202;BME280;26936;50.524;8.684;2022-07-29T07:24:45;99250.22;;;27.59;47.83
41202;BME280;26936;50.524;8.684;2022-07-29T07:27:15;99257.56;;;27.24;49.70
41202;BME280;26936;50.524;8.684;2022-07-29T07:29:41;99253.13;;;27.23;48.51
41202;BME280;26936;50.524;8.684;2022-07-29T07:32:06;99258.09;;;26.59;48.58
41202;BME280;26936;50.524;8.684;2022-07-29T07:34:34;99263.88;;;26.38;48.93
41202;BME280;26936;50.524;8.684;2022-07-29T07:37:00;99263.53;;;26.91;47.16
41202;BME280;26936;50.524;8.684;2022-07-29T07:39:30;99268.13;;;26.86;47.73
41202;BME280;26936;50.524;8.684;2022-07-29T07:41:55;99271.44;;;26.90;47.49
41202;BME280;26936;50.524;8.684;2022-07-29T07:44:20;99270.44;;;27.51;46.74
41202;BME280;26936;50.524;8.684;2022-07-29T07:46:46;99264.41;;;27.34;46.89
41202;BME280;26936;50.524;8.684;2022-07-29T07:49:23;99254.94;;;27.34;46.96
41202;BME280;26936;50.524;8.684;2022-07-29T07:51:49;99257.41;;;27.80;46.13
41202;BME280;26936;50.524;8.684;2022-07-29T07:54:14;99255.78;;;28.08;44.80
41202;BME280;26936;50.524;8.684;2022-07-29T07:56:39;99263.50;;;28.35;44.95
41202;BME280;26936;50.524;8.684;2022-07-29T07:59:04;99262.16;;;28.29;41.77
41202;BME280;26936;50.524;8.684;2022-07-29T08:01:30;99262.53;;;29.00;42.82
41202;BME280;26936;50.524;8.684;2022-07-29T08:03:55;99255.16;;;29.07;41.83
41202;BME280;26936;50.524;8.684;2022-07-29T08:06:20;99258.88;;;28.92;43.43
41202;BME280;26936;50.524;8.684;2022-07-29T08:08:45;99254.47;;;29.39;42.94
41202;BME280;26936;50.524;8.684;2022-07-29T08:11:11;99257.28;;;29.69;41.13
41202;BME280;26936;50.524;8.684;2022-07-29T08:13:37;99251.06;;;29.65;41.47
41202;BME280;26936;50.524;8.684;2022-07-29T08:16:03;99252.59;;;30.05;40.86
41202;BME280;26936;50.524;8.684;2022-07-29T08:18:39;99257.22;;;30.40;40.19
41202;BME280;26936;50.524;8.684;2022-07-29T08:21:05;99248.72;;;30.60;39.91
41202;BME280;26936;50.524;8.684;2022-07-29T08:23:30;99253.41;;;30.80;39.08
41202;BME280;26936;50.524;8.684;2022-07-29T08:26:08;99250.78;;;30.17;40.48
41202;BME280;26936;50.524;8.684;2022-07-29T08:28:39;99255.69;;;29.75;40.75
41202;BME280;26936;50.524;8.684;2022-07-29T08:31:05;99261.03;;;29.47;41.00
41202;BME280;26936;50.524;8.684;2022-07-29T08:33:32;99254.06;;;29.89;40.94
41202;BME280;26936;50.524;8.684;2022-07-29T08:35:57;99264.81;;;30.04;40.14
41202;BME280;26936;50.524;8.684;2022-07-29T08:38:22;99268.44;;;29.80;41.07
41202;BME280;26936;50.524;8.684;2022-07-29T08:40:48;99262.56;;;28.78;42.22
41202;BME280;26936;50.524;8.684;2022-07-29T08:43:13;99258.31;;;28.49;43.56
41202;BME280;26936;50.524;8.684;2022-07-29T08:45:44;99262.38;;;28.53;43.63
41202;BME280;26936;50.524;8.684;2022-07-29T08:48:14;99257.72;;;28.65;43.33
41202;BME280;26936;50.524;8.684;2022-07-29T08:50:42;99259.81;;;29.10;43.00
41202;BME280;26936;50.524;8.684;2022-07-29T08:53:11;99260.75;;;29.12;43.67
41202;BME280;26936;50.524;8.684;2022-07-29T08:55:40;99260.97;;;29.07;42.56
41202;BME280;26936;50.524;8.684;2022-07-29T08:58:06;99264.41;;;29.20;42.45
41202;BME280;26936;50.524;8.684;2022-07-29T09:00:32;99266.59;;;28.90;43.56
41202;BME280;26936;50.524;8.684;2022-07-29T09:03:00;99270.44;;;29.07;43.33
41202;BME280;26936;50.524;8.684;2022-07-29T09:05:27;99263.22;;;29.31;42.67
41202;BME280;26936;50.524;8.684;2022-07-29T09:07:53;99259.41;;;29.06;43.00
41202;BME280;26936;50.524;8.684;2022-07-29T09:10:18;99265.41;;;28.93;43.95
41202;BME280;26936;50.524;8.684;2022-07-29T09:12:44;99264.84;;;28.87;43.95
41202;BME280;26936;50.524;8.684;2022-07-29T09:15:09;99259.66;;;28.78;44.04
41202;BME280;26936;50.524;8.684;2022-07-29T09:20:15;99258.50;;;28.81;44.12
41202;BME280;26936;50.524;8.684;2022-07-29T09:22:40;99254.25;;;28.67;44.27
41202;BME280;26936;50.524;8.684;2022-07-29T09:25:06;99254.81;;;28.65;42.97
41202;BME280;26936;50.524;8.684;2022-07-29T09:27:31;99256.19;;;28.64;45.12
41202;BME280;26936;50.524;8.684;2022-07-29T09:29:59;99251.13;;;28.87;43.47
41202;BME280;26936;50.524;8.684;2022-07-29T09:32:25;99256.00;;;28.77;43.56
41202;BME280;26936;50.524;8.684;2022-07-29T09:35:21;99249.22;;;28.75;44.23
41202;BME280;26936;50.524;8.684;2022-07-29T09:37:48;99255.78;;;28.45;44.38
41202;BME280;26936;50.524;8.684;2022-07-29T09:40:20;99241.13;;;28.66;44.02
41202;BME280;26936;50.524;8.684;2022-07-29T09:42:47;99240.94;;;28.49;44.97
41202;BME280;26936;50.524;8.684;2022-07-29T09:45:26;99240.06;;;29.01;44.95
41202;BME280;26936;50.524;8.684;2022-07-29T09:47:52;99245.91;;;29.08;43.62
41202;BME280;26936;50.524;8.684;2022-07-29T09:50:17;99244.63;;;29.42;42.79
41202;BME280;26936;50.524;8.684;2022-07-29T09:52:50;99247.03;;;29.68;42.72
41202;BME280;26936;50.524;8.684;2022-07-29T09:55:16;99242.63;;;29.52;43.38
41202;BME280;26936;50.524;8.684;2022-07-29T09:57:42;99233.38;;;29.46;42.19
41202;BME280;26936;50.524;8.684;2022-07-29T10:02:36;99233.56;;;28.78;43.74
41202;BME280;26936;50.524;8.684;2022-07-29T10:05:03;99239.38;;;28.48;44.91
41202;BME280;26936;50.524;8.684;2022-07-29T10:07:49;99229.72;;;28.60;45.47
41202;BME280;26936;50.524;8.684;2022-07-29T10:10:36;99235.19;;;29.26;43.81
41202;BME280;26936;50.524;8.684;2022-07-29T10:13:20;99230.44;;;29.93;42.73
41202;BME280;26936;50.524;8.684;2022-07-29T10:15:45;99226.66;;;30.57;41.29
41202;BME280;26936;50.524;8.684;2022-07-29T10:18:12;99224.94;;;30.95;41.06
41202;BME280;26936;50.524;8.684;2022-07-29T10:20:39;99224.53;;;31.16;39.49
41202;BME280;26936;50.524;8.684;2022-07-29T10:23:05;99218.59;;;31.23;38.82
41202;BME280;26936;50.524;8.684;2022-07-29T10:25:31;99216.19;;;31.63;38.75
41202;BME280;26936;50.524;8.684;2022-07-29T10:27:57;99214.88;;;32.01;38.07
41202;BME280;26936;50.524;8.684;2022-07-29T10:30:24;99211.94;;;31.91;38.07
41202;BME280;26936;50.524;8.684;2022-07-29T10:33:04;99212.09;;;32.29;36.92
41202;BME280;26936;50.524;8.684;2022-07-29T10:44:24;99222.59;;;30.77;37.50
41202;BME280;26936;50.524;8.684;2022-07-29T10:46:51;99211.56;;;30.75;37.27
41202;BME280;26936;50.524;8.684;2022-07-29T10:49:17;99219.38;;;30.48;38.26
41202;BME280;26936;50.524;8.684;2022-07-29T10:54:15;99217.06;;;31.39;37.02
41202;BME280;26936;50.524;8.684;2022-07-29T10:56:41;99215.91;;;31.42;37.38
41202;BME280;26936;50.524;8.684;2022-07-29T11:01:48;99202.34;;;31.81;35.35
41202;BME280;26936;50.524;8.684;2022-07-29T11:07:11;99192.81;;;31.80;35.56
41202;BME280;26936;50.524;8.684;2022-07-29T11:09:37;99190.16;;;32.28;35.61
41202;BME280;26936;50.524;8.684;2022-07-29T11:12:03;99190.38;;;32.40;34.72
41202;BME280;26936;50.524;8.684;2022-07-29T11:17:18;99195.94;;;31.65;35.62
41202;BME280;26936;50.524;8.684;2022-07-29T11:19:44;99195.50;;;31.69;36.54
41202;BME280;26936;50.524;8.684;2022-07-29T11:22:10;99198.88;;;31.05;37.62
41202;BME280;26936;50.524;8.684;2022-07-29T11:24:37;99196.53;;;30.86;37.11
41202;BME280;26936;50.524;8.684;2022-07-29T11:27:18;99199.69;;;30.81;38.20
41202;BME280;26936;50.524;8.684;2022-07-29T11:29:52;99186.81;;;30.91;38.68
41202;BME280;26936;50.524;8.684;2022-07-29T11:32:18;99184.47;;;31.24;38.67
41202;BME280;26936;50.524;8.684;2022-07-29T11:34:46;99197.13;;;31.19;37.47
41202;BME280;26936;50.524;8.684;2022-07-29T11:39:43;99188.59;;;30.87;37.86
41202;BME280;26936;50.524;8.684;2022-07-29T11:47:27;99179.47;;;30.90;37.60
41202;BME280;26936;50.524;8.684;2022-07-29T11:49:55;99176.97;;;30.87;39.03
41202;BME280;26936;50.524;8.684;2022-07-29T11:52:21;99184.59;;;30.58;39.16
41202;BME280;26936;50.524;8.684;2022-07-29T11:54:48;99181.34;;;30.53;38.84
41202;BME280;26936;50.524;8.684;2022-07-29T11:57:15;99176.44;;;30.81;38.47
41202;BME280;26936;50.524;8.684;2022-07-29T11:59:43;99172.00;;;30.80;38.90
41202;BME280;26936;50.524;8.684;2022-07-29T12:02:08;99172.50;;;30.69;39.20
41202;BME280;26936;50.524;8.684;2022-07-29T12:04:50;99179.78;;;30.35;37.61
41202;BME280;26936;50.524;8.684;2022-07-29T12:07:16;99168.56;;;30.07;38.75
41202;BME280;26936;50.524;8.684;2022-07-29T12:09:51;99168.16;;;30.11;39.46
41202;BME280;26936;50.524;8.684;2022-07-29T12:12:17;99166.25;;;30.06;40.22
41202;BME280;26936;50.524;8.684;2022-07-29T12:14:43;99159.22;;;30.16;40.19
41202;BME280;26936;50.524;8.684;2022-07-29T12:17:32;99160.56;;;30.15;39.58
41202;BME280;26936;50.524;8.684;2022-07-29T12:20:03;99155.75;;;29.86;40.62
41202;BME280;26936;50.524;8.684;2022-07-29T12:22:30;99149.56;;;29.57;39.18
41202;BME280;26936;50.524;8.684;2022-07-29T12:25:01;99153.69;;;29.79;41.07
41202;BME280;26936;50.524;8.684;2022-07-29T12:27:27;99148.53;;;29.94;40.44
41202;BME280;26936;50.524;8.684;2022-07-29T12:30:01;99149.50;;;29.97;40.44
41202;BME280;26936;50.524;8.684;2022-07-29T12:32:35;99137.94;;;29.89;39.52
41202;BME280;26936;50.524;8.684;2022-07-29T12:35:09;99142.91;;;29.96;40.18
41202;BME280;26936;50.524;8.684;2022-07-29T12:37:36;99138.88;;;29.92;40.18
41202;BME280;26936;50.524;8.684;2022-07-29T12:40:03;99140.31;;;30.08;40.20
41202;BME280;26936;50.524;8.684;2022-07-29T12:42:29;99137.59;;;29.85;38.67
41202;BME280;26936;50.524;8.684;2022-07-29T12:44:54;99138.03;;;29.99;39.85
41202;BME280;26936;50.524;8.684;2022-07-29T12:47:20;99125.66;;;29.98;38.51
41202;BME280;26936;50.524;8.684;2022-07-29T12:49:46;99120.16;;;30.10;39.98
41202;BME280;26936;50.524;8.684;2022-07-29T12:52:31;99118.44;;;30.07;40.18
41202;BME280;26936;50.524;8.684;2022-07-29T12:54:57;99117.88;;;30.25;40.16
41202;BME280;26936;50.524;8.684;2022-07-29T12:57:23;99101.06;;;30.24;39.11
41202;BME280;26936;50.524;8.684;2022-07-29T13:00:09;99102.75;;;30.27;39.68
41202;BME280;26936;50.524;8.684;2022-07-29T13:02:36;99098.34;;;30.01;39.17
41202;BME280;26936;50.524;8.684;2022-07-29T13:05:03;99103.88;;;29.90;39.74
41202;BME280;26936;50.524;8.684;2022-07-29T13:07:31;99098.69;;;30.05;41.04
41202;BME280;26936;50.524;8.684;2022-07-29T13:13:00;99096.41;;;30.21;39.57
41202;BME280;26936;50.524;8.684;2022-07-29T13:15:25;99092.25;;;30.31;39.88
41202;BME280;26936;50.524;8.684;2022-07-29T13:17:50;99100.13;;;30.38;39.04
41202;BME280;26936;50.524;8.684;2022-07-29T13:20:15;99096.13;;;30.34;38.81
41202;BME280;26936;50.524;8.684;2022-07-29T13:22:41;99097.94;;;30.05;39.79
41202;BME280;26936;50.524;8.684;2022-07-29T13:25:10;99103.38;;;29.76;39.81
41202;BME280;26936;50.524;8.684;2022-07-29T13:27:37;99104.25;;;29.62;40.13
41202;BME280;26936;50.524;8.684;2022-07-29T13:30:05;99108.25;;;29.42;40.00
41202;BME280;26936;50.524;8.684;2022-07-29T13:32:31;99103.50;;;29.29;40.78
41202;BME280;26936;50.524;8.684;2022-07-29T13:34:59;99091.81;;;29.04;40.94
41202;BME280;26936;50.524;8.684;2022-07-29T13:37:25;99095.72;;;28.92;40.52
41202;BME280;26936;50.524;8.684;2022-07-29T13:39:51;99096.69;;;28.94;41.25
41202;BME280;26936;50.524;8.684;2022-07-29T13:42:17;99091.47;;;28.93;41.46
41202;BME280;26936;50.524;8.684;2022-07-29T13:44:43;99089.25;;;28.76;41.16